createdAt,value
2018-12-29T00:00:34.853Z,7.00
2018-12-29T00:03:16.298Z,7.00
2018-12-29T00:05:57.215Z,7.00
2018-12-29T00:08:37.858Z,7.00
2018-12-29T00:11:18.532Z,6.90
2018-12-29T00:13:59.003Z,6.90
2018-12-29T00:16:40.063Z,6.80
2018-12-29T00:19:20.349Z,6.80
2018-12-29T00:22:01.112Z,6.70
2018-12-29T00:24:41.729Z,6.60
2018-12-29T00:27:22.690Z,6.70
2018-12-29T00:30:03.519Z,6.70
2018-12-29T00:32:44.272Z,6.70
2018-12-29T00:35:25.282Z,6.70
2018-12-29T00:38:06.535Z,6.60
2018-12-29T00:40:47.719Z,6.50
2018-12-29T00:43:28.812Z,6.50
2018-12-29T00:46:09.196Z,6.50
2018-12-29T00:48:49.939Z,6.40
2018-12-29T00:51:30.706Z,6.40
2018-12-29T00:54:11.454Z,6.30
2018-12-29T00:56:52.119Z,6.40
2018-12-29T00:59:32.694Z,6.30
2018-12-29T01:02:13.523Z,6.30
2018-12-29T01:04:54.396Z,6.20
2018-12-29T01:07:34.965Z,6.40
2018-12-29T01:10:15.987Z,6.50
2018-12-29T01:12:56.544Z,6.60
2018-12-29T01:15:36.916Z,6.60
2018-12-29T01:18:17.486Z,6.60
2018-12-29T01:20:58.134Z,6.60
2018-12-29T01:23:38.976Z,6.60
2018-12-29T01:26:19.431Z,6.70
2018-12-29T01:28:59.904Z,6.70
2018-12-29T01:31:40.336Z,6.70
2018-12-29T01:34:21.573Z,6.70
2018-12-29T01:37:02.270Z,6.70
2018-12-29T01:39:42.919Z,6.50
2018-12-29T01:42:23.401Z,6.40
2018-12-29T01:45:03.947Z,6.30
2018-12-29T01:47:44.562Z,6.30
2018-12-29T01:50:25.075Z,6.20
2018-12-29T01:53:06.049Z,6.30
2018-12-29T01:55:46.514Z,6.20
2018-12-29T01:58:27.225Z,6.10
2018-12-29T02:01:07.867Z,6.20
2018-12-29T02:03:48.447Z,6.30
2018-12-29T02:06:29.132Z,6.40
2018-12-29T02:09:09.899Z,6.40
2018-12-29T02:11:50.614Z,6.50
2018-12-29T02:14:31.003Z,6.50
2018-12-29T02:17:11.980Z,6.60
2018-12-29T02:19:52.260Z,6.60
2018-12-29T02:22:32.965Z,6.50
2018-12-29T02:25:13.882Z,6.30
2018-12-29T02:27:54.782Z,6.40
2018-12-29T02:30:35.139Z,6.50
2018-12-29T02:33:15.926Z,6.60
2018-12-29T02:35:56.962Z,6.40
2018-12-29T02:38:37.343Z,6.40
2018-12-29T02:41:17.820Z,6.50
2018-12-29T02:43:58.434Z,6.50
2018-12-29T02:46:39.383Z,6.60
2018-12-29T02:49:20.354Z,6.70
2018-12-29T02:52:01.551Z,6.70
2018-12-29T02:54:42.047Z,6.70
2018-12-29T02:57:22.734Z,6.70
2018-12-29T03:00:03.054Z,6.80
2018-12-29T03:02:43.624Z,6.80
2018-12-29T03:05:23.991Z,6.80
2018-12-29T03:08:04.723Z,6.70
2018-12-29T03:10:45.142Z,6.70
2018-12-29T03:13:25.819Z,6.60
2018-12-29T03:16:06.295Z,6.60
2018-12-29T03:18:46.766Z,6.70
2018-12-29T03:21:27.140Z,6.80
2018-12-29T03:24:07.519Z,6.70
2018-12-29T03:26:48.303Z,6.60
2018-12-29T03:29:28.829Z,6.70
2018-12-29T03:32:09.563Z,6.60
2018-12-29T03:34:50.240Z,6.60
2018-12-29T03:37:31.119Z,6.70
2018-12-29T03:40:11.527Z,6.80
2018-12-29T03:42:52.206Z,6.70
2018-12-29T03:45:32.799Z,6.60
2018-12-29T03:48:13.152Z,6.40
2018-12-29T03:50:53.814Z,6.40
2018-12-29T03:53:34.598Z,6.50
2018-12-29T03:56:15.219Z,6.60
2018-12-29T03:58:56.138Z,6.60
2018-12-29T04:01:36.652Z,6.70
2018-12-29T04:04:17.246Z,6.70
2018-12-29T04:06:57.798Z,6.70
2018-12-29T04:09:38.496Z,6.60
2018-12-29T04:12:18.960Z,6.60
2018-12-29T04:14:59.333Z,6.30
2018-12-29T04:17:40.511Z,6.30
2018-12-29T04:20:21.386Z,6.40
2018-12-29T04:23:02.171Z,6.50
2018-12-29T04:25:42.959Z,6.50
2018-12-29T04:28:23.537Z,6.40
2018-12-29T04:31:04.346Z,6.50
2018-12-29T04:33:45.056Z,6.60
2018-12-29T04:36:25.532Z,6.70
2018-12-29T04:39:06.190Z,6.80
2018-12-29T04:41:46.676Z,6.60
2018-12-29T04:44:27.565Z,6.70
2018-12-29T04:47:08.078Z,6.60
2018-12-29T04:49:48.807Z,6.70
2018-12-29T04:52:29.757Z,6.60
2018-12-29T04:55:10.587Z,6.70
2018-12-29T04:57:50.964Z,6.70
2018-12-29T05:00:31.500Z,6.60
2018-12-29T05:03:12.011Z,6.60
2018-12-29T05:05:52.620Z,6.70
2018-12-29T05:08:33.142Z,6.60
2018-12-29T05:11:13.653Z,6.60
2018-12-29T05:13:54.003Z,6.70
2018-12-29T05:16:34.566Z,6.70
2018-12-29T05:19:15.110Z,6.70
2018-12-29T05:21:55.943Z,6.70
2018-12-29T05:24:36.294Z,6.70
2018-12-29T05:27:17.036Z,6.80
2018-12-29T05:29:57.638Z,6.70
2018-12-29T05:32:38.211Z,6.60
2018-12-29T05:35:18.826Z,6.60
2018-12-29T05:37:59.612Z,6.70
2018-12-29T05:40:28.360Z,6.70
2018-12-29T05:42:57.422Z,6.80
2018-12-29T05:45:38.747Z,6.70
2018-12-29T05:48:19.579Z,6.70
2018-12-29T05:51:00.284Z,6.80
2018-12-29T05:53:41.037Z,6.80
2018-12-29T05:56:21.675Z,6.80
2018-12-29T05:59:02.384Z,6.60
2018-12-29T06:01:43.500Z,6.70
2018-12-29T06:04:24.713Z,6.80
2018-12-29T06:07:05.859Z,6.80
2018-12-29T06:09:46.255Z,6.80
2018-12-29T06:12:26.610Z,6.80
2018-12-29T06:15:06.975Z,6.80
2018-12-29T06:17:47.596Z,6.80
2018-12-29T06:20:27.853Z,6.70
2018-12-29T06:23:08.531Z,6.70
2018-12-29T06:25:49.124Z,6.60
2018-12-29T06:28:29.967Z,6.50
2018-12-29T06:31:10.861Z,6.50
2018-12-29T06:33:51.451Z,6.50
2018-12-29T06:36:31.813Z,6.50
2018-12-29T06:39:12.342Z,6.60
2018-12-29T06:41:52.752Z,6.80
2018-12-29T06:44:33.184Z,6.90
2018-12-29T06:47:13.604Z,6.90
2018-12-29T06:49:54.107Z,7.00
2018-12-29T06:52:34.844Z,7.10
2018-12-29T06:55:15.670Z,7.10
2018-12-29T06:57:56.362Z,7.20
2018-12-29T07:00:36.920Z,7.20
2018-12-29T07:03:17.322Z,7.20
2018-12-29T07:05:58.032Z,7.20
2018-12-29T07:08:38.931Z,7.20
2018-12-29T07:11:19.285Z,7.20
2018-12-29T07:13:59.935Z,7.10
2018-12-29T07:16:42.336Z,7.10
2018-12-29T07:19:23.338Z,7.10
2018-12-29T07:22:03.996Z,7.20
2018-12-29T07:24:44.974Z,7.30
2018-12-29T07:27:25.510Z,7.30
2018-12-29T07:30:06.239Z,7.30
2018-12-29T07:32:46.544Z,7.30
2018-12-29T07:35:27.315Z,7.30
2018-12-29T07:38:08.230Z,7.30
2018-12-29T07:40:48.522Z,7.30
2018-12-29T07:43:29.251Z,7.10
2018-12-29T07:46:09.942Z,6.80
2018-12-29T07:48:50.651Z,6.80
2018-12-29T07:51:31.720Z,7.00
2018-12-29T07:54:12.402Z,7.00
2018-12-29T07:56:53.255Z,6.80
2018-12-29T07:59:34.150Z,6.60
2018-12-29T08:02:15.111Z,6.60
2018-12-29T08:04:56.149Z,6.60
2018-12-29T08:07:36.662Z,6.80
2018-12-29T08:10:17.342Z,6.80
2018-12-29T08:12:57.863Z,6.90
2018-12-29T08:15:38.806Z,6.80
2018-12-29T08:18:19.151Z,6.80
2018-12-29T08:20:59.975Z,6.90
2018-12-29T08:23:40.645Z,7.00
2018-12-29T08:26:21.290Z,7.10
2018-12-29T08:29:02.091Z,7.20
2018-12-29T08:31:42.734Z,7.20
2018-12-29T08:34:23.528Z,7.20
2018-12-29T08:37:04.082Z,7.40
2018-12-29T08:39:45.008Z,7.30
2018-12-29T08:42:25.902Z,7.30
2018-12-29T08:45:07.118Z,7.40
2018-12-29T08:47:47.912Z,7.30
2018-12-29T08:50:28.459Z,7.20
2018-12-29T08:53:09.181Z,7.10
2018-12-29T08:55:50.025Z,7.20
2018-12-29T08:58:30.720Z,7.10
2018-12-29T09:01:11.723Z,7.10
2018-12-29T09:03:52.457Z,7.20
2018-12-29T09:06:33.097Z,7.20
2018-12-29T09:09:13.787Z,7.10
2018-12-29T09:11:54.368Z,7.20
2018-12-29T09:14:35.348Z,7.20
2018-12-29T09:17:15.901Z,7.30
2018-12-29T09:19:56.727Z,7.20
2018-12-29T09:22:38.271Z,7.30
2018-12-29T09:25:18.675Z,7.30
2018-12-29T09:27:59.519Z,7.30
2018-12-29T09:30:40.012Z,7.30
2018-12-29T09:33:20.474Z,7.20
2018-12-29T09:36:01.793Z,7.30
2018-12-29T09:38:43.108Z,7.20
2018-12-29T09:41:23.433Z,7.30
2018-12-29T09:44:04.287Z,7.30
2018-12-29T09:46:45.725Z,7.30
2018-12-29T09:49:26.816Z,7.40
2018-12-29T09:52:07.524Z,7.40
2018-12-29T09:54:48.154Z,7.50
2018-12-29T09:57:28.895Z,7.50
2018-12-29T10:00:09.517Z,7.40
2018-12-29T10:02:49.971Z,7.60
2018-12-29T10:05:30.460Z,7.70
2018-12-29T10:08:11.027Z,7.80
2018-12-29T10:10:51.815Z,7.80
2018-12-29T10:13:32.689Z,7.90
2018-12-29T10:16:13.889Z,7.90
2018-12-29T10:18:54.484Z,7.80
2018-12-29T10:21:35.411Z,7.70
2018-12-29T10:24:16.620Z,7.60
2018-12-29T10:26:57.495Z,7.60
2018-12-29T10:29:38.195Z,7.60
2018-12-29T10:32:18.860Z,7.60
2018-12-29T10:34:59.284Z,7.70
2018-12-29T10:37:39.963Z,7.80
2018-12-29T10:40:20.621Z,7.80
2018-12-29T10:43:01.423Z,7.80
2018-12-29T10:45:30.222Z,7.70
2018-12-29T10:48:18.261Z,7.90
2018-12-29T10:51:06.250Z,7.90
2018-12-29T10:53:54.241Z,7.90
2018-12-29T10:56:42.227Z,7.90
2018-12-29T10:59:30.476Z,7.90
2018-12-29T11:02:20.183Z,7.80
2018-12-29T11:05:08.411Z,7.80
2018-12-29T11:07:56.463Z,7.90
2018-12-29T11:10:44.477Z,8.00
2018-12-29T11:13:32.451Z,8.00
2018-12-29T11:16:41.552Z,8.10
2018-12-29T11:19:29.546Z,8.10
2018-12-29T11:22:17.531Z,8.10
2018-12-29T11:25:05.528Z,8.10
2018-12-29T11:27:53.529Z,8.20
2018-12-29T11:30:41.772Z,8.50
2018-12-29T11:33:30.040Z,8.70
2018-12-29T11:36:18.039Z,8.70
2018-12-29T11:39:06.559Z,8.70
2018-12-29T11:45:01.655Z,8.80
2018-12-29T11:47:49.623Z,8.50
2018-12-29T11:50:25.311Z,8.40
2018-12-29T11:53:06.140Z,8.20
2018-12-29T11:55:46.859Z,8.20
2018-12-29T11:58:27.367Z,8.30
2018-12-29T12:01:08.087Z,8.40
2018-12-29T12:03:48.815Z,8.30
2018-12-29T12:06:29.775Z,8.30
2018-12-29T12:09:10.963Z,8.30
2018-12-29T12:11:51.850Z,8.40
2018-12-29T12:14:32.528Z,8.20
2018-12-29T12:17:13.204Z,8.20
2018-12-29T12:19:54.893Z,8.20
2018-12-29T12:22:36.395Z,8.00
2018-12-29T12:25:17.428Z,7.90
2018-12-29T12:27:58.403Z,7.90
2018-12-29T12:30:38.977Z,7.70
2018-12-29T12:33:19.810Z,7.60
2018-12-29T12:36:00.376Z,7.60
2018-12-29T12:38:41.910Z,7.70
2018-12-29T12:41:23.290Z,7.80
2018-12-29T12:44:04.896Z,7.80
2018-12-29T12:46:45.701Z,7.90
2018-12-29T12:52:46.628Z,7.70
2018-12-29T12:55:27.062Z,7.70
2018-12-29T12:58:08.067Z,7.70
2018-12-29T13:00:49.183Z,7.80
2018-12-29T13:03:30.521Z,8.00
2018-12-29T13:06:12.975Z,7.90
2018-12-29T13:08:54.037Z,7.80
2018-12-29T13:11:34.772Z,7.60
2018-12-29T13:14:15.623Z,7.60
2018-12-29T13:16:44.680Z,7.70
2018-12-29T13:19:32.663Z,7.60
2018-12-29T13:22:20.727Z,7.60
2018-12-29T13:25:08.727Z,7.60
2018-12-29T13:27:57.049Z,7.70
2018-12-29T13:30:45.051Z,7.80
2018-12-29T13:33:33.544Z,7.80
2018-12-29T13:36:21.611Z,7.70
2018-12-29T13:39:09.944Z,7.70
2018-12-29T13:41:58.296Z,7.70
2018-12-29T13:44:46.518Z,7.80
2018-12-29T13:47:27.084Z,7.80
2018-12-29T13:50:07.960Z,7.70
2018-12-29T13:52:48.652Z,7.80
2018-12-29T13:55:29.659Z,7.80
2018-12-29T13:58:10.253Z,7.80
2018-12-29T14:00:50.936Z,7.90
2018-12-29T14:03:32.143Z,7.90
2018-12-29T14:06:12.733Z,7.90
2018-12-29T14:08:53.699Z,7.80
2018-12-29T14:11:34.671Z,7.90
2018-12-29T14:14:15.911Z,7.80
2018-12-29T14:16:56.697Z,7.70
2018-12-29T14:19:37.256Z,7.70
2018-12-29T14:22:18.095Z,7.70
2018-12-29T14:24:58.719Z,7.70
2018-12-29T14:27:39.671Z,7.80
2018-12-29T14:30:20.538Z,7.70
2018-12-29T14:33:01.336Z,7.60
2018-12-29T14:35:42.154Z,7.60
2018-12-29T14:38:22.941Z,7.60
2018-12-29T14:41:03.891Z,7.60
2018-12-29T14:43:45.087Z,7.60
2018-12-29T14:46:25.387Z,7.60
2018-12-29T14:49:06.187Z,7.60
2018-12-29T14:51:46.739Z,7.70
2018-12-29T14:54:27.440Z,7.70
2018-12-29T14:57:07.998Z,7.70
2018-12-29T14:59:48.728Z,7.70
2018-12-29T15:02:29.520Z,7.80
2018-12-29T15:05:11.103Z,7.80
2018-12-29T15:07:51.647Z,7.80
2018-12-29T15:10:32.394Z,7.90
2018-12-29T15:13:12.960Z,7.80
2018-12-29T15:15:54.585Z,8.00
2018-12-29T15:18:43.329Z,7.90
2018-12-29T15:21:18.435Z,7.90
2018-12-29T15:23:59.515Z,7.90
2018-12-29T15:26:40.444Z,7.80
2018-12-29T15:29:21.792Z,7.80
2018-12-29T15:32:02.290Z,7.80
2018-12-29T15:34:42.963Z,7.80
2018-12-29T15:37:23.915Z,7.80
2018-12-29T15:40:04.431Z,7.80
2018-12-29T15:42:45.257Z,7.80
2018-12-29T15:45:25.626Z,7.80
2018-12-29T15:48:06.683Z,7.80
2018-12-29T15:50:47.364Z,7.80
2018-12-29T15:53:27.754Z,7.70
2018-12-29T15:56:08.224Z,7.80
2018-12-29T15:58:48.606Z,7.70
2018-12-29T16:01:29.244Z,7.70
2018-12-29T16:04:09.838Z,7.70
2018-12-29T16:06:51.119Z,7.70
2018-12-29T16:09:32.106Z,7.70
2018-12-29T16:12:13.426Z,7.70
2018-12-29T16:14:53.876Z,7.90
2018-12-29T16:17:34.805Z,8.00
2018-12-29T16:20:15.753Z,8.00
2018-12-29T16:22:57.234Z,7.90
2018-12-29T16:25:37.977Z,7.80
2018-12-29T16:28:18.602Z,7.70
2018-12-29T16:30:59.164Z,7.70
2018-12-29T16:33:41.673Z,7.80
2018-12-29T16:36:23.088Z,7.70
2018-12-29T16:39:03.999Z,7.60
2018-12-29T16:41:45.046Z,7.60
2018-12-29T16:44:25.883Z,7.50
2018-12-29T16:47:07.228Z,7.40
2018-12-29T16:49:50.390Z,7.30
2018-12-29T16:52:31.100Z,7.30
2018-12-29T16:55:12.259Z,7.20
2018-12-29T16:57:52.633Z,7.10
2018-12-29T17:00:33.055Z,7.00
2018-12-29T17:03:13.687Z,6.90
2018-12-29T17:05:54.315Z,6.70
2018-12-29T17:08:35.064Z,6.50
2018-12-29T17:11:15.823Z,6.40
2018-12-29T17:13:57.619Z,6.40
2018-12-29T17:16:38.389Z,6.40
2018-12-29T17:19:20.837Z,6.50
2018-12-29T17:22:01.378Z,6.40
2018-12-29T17:24:42.219Z,6.50
2018-12-29T17:27:22.856Z,6.40
2018-12-29T17:30:04.508Z,6.30
2018-12-29T17:32:45.684Z,6.20
2018-12-29T17:35:26.077Z,6.10
2018-12-29T17:38:06.671Z,6.10
2018-12-29T17:40:47.588Z,6.10
2018-12-29T17:43:27.979Z,5.90
2018-12-29T17:46:08.607Z,5.90
2018-12-29T17:48:49.332Z,6.00
2018-12-29T17:51:30.149Z,6.00
2018-12-29T17:54:10.815Z,6.10
2018-12-29T17:56:51.551Z,6.20
2018-12-29T17:59:32.367Z,6.30
2018-12-29T18:02:13.155Z,6.30
2018-12-29T18:04:53.869Z,6.50
2018-12-29T18:07:33.309Z,6.40
2018-12-29T18:10:21.626Z,6.40
2018-12-29T18:16:18.703Z,6.40
2018-12-29T18:19:06.763Z,6.40
2018-12-29T18:21:54.881Z,6.40
2018-12-29T18:24:44.756Z,6.50
2018-12-29T18:27:32.726Z,6.60
2018-12-29T18:30:20.799Z,6.70
2018-12-29T18:33:08.862Z,6.80
2018-12-29T18:35:57.154Z,6.90
2018-12-29T18:38:45.125Z,6.90
2018-12-29T18:41:33.527Z,6.90
2018-12-29T18:44:21.501Z,7.00
2018-12-29T18:47:04.705Z,7.10
2018-12-29T18:49:45.849Z,7.10
2018-12-29T18:52:26.501Z,7.20
2018-12-29T18:55:07.191Z,7.20
2018-12-29T18:57:47.906Z,7.10
2018-12-29T19:00:28.421Z,7.10
2018-12-29T19:03:09.471Z,7.10
2018-12-29T19:05:50.387Z,7.10
2018-12-29T19:08:31.434Z,7.00
2018-12-29T19:11:12.367Z,7.10
2018-12-29T19:13:53.126Z,7.10
2018-12-29T19:16:34.060Z,7.00
2018-12-29T19:19:14.716Z,6.90
2018-12-29T19:21:56.032Z,6.70
2018-12-29T19:24:36.820Z,6.60
2018-12-29T19:27:17.539Z,6.60
2018-12-29T19:29:58.943Z,6.60
2018-12-29T19:32:45.727Z,6.50
2018-12-29T19:35:26.925Z,6.60
2018-12-29T19:38:07.626Z,6.50
2018-12-29T19:40:49.094Z,6.50
2018-12-29T19:43:31.854Z,6.40
2018-12-29T19:46:12.607Z,6.40
2018-12-29T19:48:53.316Z,6.40
2018-12-29T19:51:33.865Z,6.30
2018-12-29T19:54:14.682Z,6.30
2018-12-29T19:56:55.311Z,6.40
2018-12-29T19:59:36.899Z,6.30
2018-12-29T20:02:17.280Z,6.30
2018-12-29T20:04:58.010Z,6.30
2018-12-29T20:07:39.553Z,6.40
2018-12-29T20:10:20.767Z,6.40
2018-12-29T20:13:01.114Z,6.40
2018-12-29T20:15:41.544Z,6.50
2018-12-29T20:18:21.979Z,6.40
2018-12-29T20:21:02.663Z,6.40
2018-12-29T20:23:43.156Z,6.50
2018-12-29T20:26:24.012Z,6.50
2018-12-29T20:29:05.523Z,6.50
2018-12-29T20:31:45.898Z,6.50
2018-12-29T20:34:26.617Z,6.60
2018-12-29T20:37:07.062Z,6.60
2018-12-29T20:39:47.789Z,6.70
2018-12-29T20:42:28.486Z,6.80
2018-12-29T20:45:09.165Z,6.90
2018-12-29T20:47:49.538Z,7.00
2018-12-29T20:50:30.006Z,7.00
2018-12-29T20:53:10.686Z,7.00
2018-12-29T20:55:51.234Z,7.00
2018-12-29T20:58:31.949Z,7.10
2018-12-29T21:01:12.818Z,7.20
2018-12-29T21:03:42.202Z,7.30
2018-12-29T21:06:30.318Z,7.20
2018-12-29T21:09:18.268Z,7.40
2018-12-29T21:12:06.234Z,7.30
2018-12-29T21:14:54.191Z,7.30
2018-12-29T21:17:42.160Z,7.40
2018-12-29T21:20:30.129Z,7.30
2018-12-29T21:23:18.102Z,7.30
2018-12-29T21:26:06.090Z,7.30
2018-12-29T21:32:01.176Z,7.40
2018-12-29T21:37:56.266Z,7.60
2018-12-29T21:40:45.950Z,7.70
2018-12-29T21:46:20.982Z,7.90
2018-12-29T21:49:01.326Z,8.00
2018-12-29T21:51:41.998Z,8.00
2018-12-29T21:54:22.893Z,8.00
2018-12-29T21:57:03.341Z,7.90
2018-12-29T21:59:44.254Z,8.00
2018-12-29T22:02:25.110Z,8.00
2018-12-29T22:05:06.222Z,8.10
2018-12-29T22:07:47.175Z,8.10
2018-12-29T22:10:27.861Z,8.00
2018-12-29T22:13:08.762Z,8.00
2018-12-29T22:15:49.525Z,8.10
2018-12-29T22:18:30.474Z,8.10
2018-12-29T22:21:11.325Z,8.00
2018-12-29T22:23:51.977Z,8.00
2018-12-29T22:26:32.502Z,8.10
2018-12-29T22:29:13.140Z,8.00
2018-12-29T22:31:53.861Z,8.00
2018-12-29T22:34:34.454Z,8.00
2018-12-29T22:37:15.019Z,8.00
2018-12-29T22:39:55.694Z,8.00
2018-12-29T22:42:24.762Z,8.00
2018-12-29T22:45:12.816Z,8.00
2018-12-29T22:48:00.797Z,8.00
2018-12-29T22:50:48.826Z,8.00
2018-12-29T22:53:36.803Z,8.00
2018-12-29T22:56:24.795Z,8.00
2018-12-29T23:02:06.643Z,8.00
2018-12-29T23:04:54.635Z,7.90
2018-12-29T23:07:44.314Z,8.00
2018-12-29T23:10:32.355Z,8.00
2018-12-29T23:13:22.038Z,7.90
2018-12-29T23:19:17.418Z,7.90
2018-12-29T23:25:12.570Z,7.90
2018-12-29T23:28:02.340Z,7.90
2018-12-29T23:34:18.326Z,7.80
2018-12-29T23:37:06.387Z,7.80
2018-12-29T23:39:54.385Z,7.90
2018-12-29T23:45:51.459Z,7.90
2018-12-29T23:48:39.543Z,7.80
2018-12-29T23:51:27.902Z,7.90
2018-12-29T23:54:16.138Z,7.90
2018-12-29T23:57:05.837Z,7.90
2018-12-29T23:59:53.835Z,7.90
